createdAt,value
2018-05-21T00:00:32.403Z,13.40
2018-05-21T00:02:59.964Z,11.33
2018-05-21T00:05:29.387Z,12.07
2018-05-21T00:07:56.904Z,9.20
2018-05-21T00:10:25.099Z,12.90
2018-05-21T00:12:52.680Z,15.53
2018-05-21T00:15:20.221Z,9.77
2018-05-21T00:17:47.840Z,9.93
2018-05-21T00:20:16.370Z,13.57
2018-05-21T00:22:44.028Z,12.43
2018-05-21T00:25:12.332Z,10.70
2018-05-21T00:27:39.867Z,13.37
2018-05-21T00:30:07.440Z,11.43
2018-05-21T00:32:36.999Z,13.23
2018-05-21T00:35:04.547Z,13.07
2018-05-21T00:37:33.059Z,14.60
2018-05-21T00:40:02.423Z,12.47
2018-05-21T00:42:29.962Z,11.20
2018-05-21T00:44:59.635Z,15.07
2018-05-21T00:47:27.241Z,14.60
2018-05-21T00:49:54.767Z,15.00
2018-05-21T00:52:22.341Z,11.33
2018-05-21T00:55:04.062Z,9.83
2018-05-21T00:57:31.721Z,10.17
2018-05-21T00:59:59.290Z,13.50
2018-05-21T01:02:26.858Z,13.07
2018-05-21T01:04:54.522Z,10.73
2018-05-21T01:07:22.249Z,12.07
2018-05-21T01:09:49.809Z,10.63
2018-05-21T01:12:17.331Z,12.30
2018-05-21T01:14:44.864Z,10.50
2018-05-21T01:17:12.521Z,11.90
2018-05-21T01:19:40.063Z,12.37
2018-05-21T01:22:07.658Z,13.00
2018-05-21T01:24:35.196Z,11.43
2018-05-21T01:27:06.937Z,15.27
2018-05-21T01:29:34.486Z,11.80
2018-05-21T01:32:04.085Z,13.53
2018-05-21T01:34:32.023Z,13.60
2018-05-21T01:36:59.682Z,9.97
2018-05-21T01:39:27.234Z,11.90
2018-05-21T01:41:54.828Z,10.70
2018-05-21T01:44:23.253Z,11.33
2018-05-21T01:46:50.876Z,12.07
2018-05-21T01:49:19.344Z,15.23
2018-05-21T01:51:47.673Z,10.53
2018-05-21T01:54:15.281Z,13.73
2018-05-21T01:56:43.607Z,11.37
2018-05-21T01:59:11.188Z,11.40
2018-05-21T02:01:38.765Z,10.57
2018-05-21T02:04:06.307Z,11.50
2018-05-21T02:06:33.880Z,12.20
2018-05-21T02:09:01.469Z,14.20
2018-05-21T02:11:30.782Z,13.90
2018-05-21T02:13:58.316Z,14.80
2018-05-21T02:16:25.892Z,14.40
2018-05-21T02:18:54.191Z,13.17
2018-05-21T02:21:22.048Z,11.30
2018-05-21T02:23:49.741Z,12.33
2018-05-21T02:26:17.286Z,14.47
2018-05-21T02:28:44.865Z,13.40
2018-05-21T02:31:12.403Z,9.70
2018-05-21T02:33:39.997Z,22.27
2018-05-21T02:36:07.532Z,15.67
2018-05-21T02:38:35.196Z,16.07
2018-05-21T02:41:02.814Z,16.50
2018-05-21T02:43:31.133Z,14.60
2018-05-21T02:45:58.804Z,13.40
2018-05-21T02:48:26.336Z,13.60
2018-05-21T02:50:54.853Z,14.07
2018-05-21T02:53:22.545Z,17.50
2018-05-21T02:55:50.124Z,11.80
2018-05-21T02:58:18.645Z,14.83
2018-05-21T03:00:47.184Z,14.00
2018-05-21T03:03:14.738Z,12.93
2018-05-21T03:05:42.339Z,15.70
2018-05-21T03:08:09.890Z,15.77
2018-05-21T03:10:37.439Z,15.57
2018-05-21T03:13:05.746Z,14.90
2018-05-21T03:15:33.343Z,13.43
2018-05-21T03:18:02.824Z,13.93
2018-05-21T03:20:30.411Z,17.77
2018-05-21T03:22:57.972Z,15.50
2018-05-21T03:25:26.581Z,15.03
2018-05-21T03:27:54.128Z,14.27
2018-05-21T03:30:22.609Z,14.03
2018-05-21T03:32:50.250Z,16.10
2018-05-21T03:35:17.895Z,20.53
2018-05-21T03:37:45.473Z,15.57
2018-05-21T03:40:13.009Z,17.93
2018-05-21T03:42:40.718Z,16.00
2018-05-21T03:45:09.165Z,13.70
2018-05-21T03:47:36.739Z,15.87
2018-05-21T03:50:04.285Z,15.27
2018-05-21T03:52:31.854Z,13.67
2018-05-21T03:54:59.397Z,17.10
2018-05-21T03:57:26.920Z,15.87
2018-05-21T04:00:07.895Z,17.73
2018-05-21T04:02:48.956Z,16.47
2018-05-21T04:05:18.695Z,16.60
2018-05-21T04:07:46.336Z,15.97
2018-05-21T04:10:14.683Z,15.93
2018-05-21T04:12:42.263Z,18.00
2018-05-21T04:15:10.823Z,16.10
2018-05-21T04:17:38.382Z,15.43
2018-05-21T04:20:05.977Z,22.43
2018-05-21T04:22:34.285Z,15.13
2018-05-21T04:25:04.021Z,14.43
2018-05-21T04:27:31.656Z,15.17
2018-05-21T04:30:00.126Z,16.33
2018-05-21T04:32:28.455Z,15.30
2018-05-21T04:34:56.985Z,18.40
2018-05-21T04:37:26.302Z,13.10
2018-05-21T04:39:53.859Z,13.33
2018-05-21T04:42:21.494Z,13.43
2018-05-21T04:44:50.816Z,16.10
2018-05-21T04:47:19.281Z,14.27
2018-05-21T04:49:47.720Z,15.93
2018-05-21T04:52:15.297Z,15.60
2018-05-21T04:54:42.834Z,13.40
2018-05-21T04:57:10.448Z,15.60
2018-05-21T04:59:38.761Z,16.77
2018-05-21T05:02:06.348Z,14.70
2018-05-21T05:04:33.972Z,15.33
2018-05-21T05:07:01.569Z,14.60
2018-05-21T05:09:30.060Z,13.83
2018-05-21T05:11:57.690Z,15.60
2018-05-21T05:14:25.212Z,15.50
2018-05-21T05:16:53.600Z,13.50
2018-05-21T05:19:21.153Z,11.47
2018-05-21T05:21:49.525Z,14.00
2018-05-21T05:24:17.862Z,13.93
2018-05-21T05:26:45.422Z,14.50
2018-05-21T05:29:13.115Z,12.17
2018-05-21T05:31:41.431Z,15.30
2018-05-21T05:34:08.994Z,14.37
2018-05-21T05:36:36.533Z,13.70
2018-05-21T05:39:05.657Z,12.93
2018-05-21T05:41:33.243Z,15.10
2018-05-21T05:44:01.607Z,11.60
2018-05-21T05:46:29.156Z,14.73
2018-05-21T05:48:56.936Z,12.00
2018-05-21T05:51:25.227Z,12.83
2018-05-21T05:53:55.159Z,11.70
2018-05-21T05:56:22.739Z,12.80
2018-05-21T05:58:51.032Z,12.07
2018-05-21T06:01:19.635Z,10.90
2018-05-21T06:03:47.342Z,9.70
2018-05-21T06:06:14.927Z,11.67
2018-05-21T06:08:43.354Z,12.80
2018-05-21T06:11:10.917Z,11.30
2018-05-21T06:13:38.581Z,16.30
2018-05-21T06:16:06.405Z,9.73
2018-05-21T06:18:34.769Z,12.63
2018-05-21T06:21:03.087Z,11.43
2018-05-21T06:23:30.640Z,10.20
2018-05-21T06:25:58.242Z,11.03
2018-05-21T06:28:25.809Z,11.13
2018-05-21T06:30:53.439Z,9.60
2018-05-21T06:33:21.027Z,9.53
2018-05-21T06:35:48.603Z,10.33
2018-05-21T06:38:16.304Z,10.27
2018-05-21T06:40:43.947Z,9.37
2018-05-21T06:43:11.703Z,10.87
2018-05-21T06:45:40.007Z,9.53
2018-05-21T06:48:07.560Z,8.37
2018-05-21T06:50:35.905Z,11.77
2018-05-21T06:53:04.880Z,9.30
2018-05-21T06:55:32.407Z,9.50
2018-05-21T06:57:59.999Z,11.23
2018-05-21T07:00:27.530Z,8.30
2018-05-21T07:02:55.070Z,11.27
2018-05-21T07:05:22.644Z,10.40
2018-05-21T07:07:50.950Z,10.93
2018-05-21T07:10:18.537Z,9.83
2018-05-21T07:12:46.078Z,9.57
2018-05-21T07:15:13.659Z,9.70
2018-05-21T07:17:41.244Z,11.90
2018-05-21T07:20:08.851Z,10.67
2018-05-21T07:22:36.388Z,9.33
2018-05-21T07:25:04.707Z,12.80
2018-05-21T07:27:32.257Z,11.23
2018-05-21T07:30:00.137Z,9.40
2018-05-21T07:32:28.593Z,8.67
2018-05-21T07:34:56.136Z,8.03
2018-05-21T07:37:26.606Z,11.17
2018-05-21T07:39:54.130Z,8.90
2018-05-21T07:42:21.744Z,11.73
2018-05-21T07:44:49.429Z,10.60
2018-05-21T07:47:16.908Z,13.17
2018-05-21T07:49:44.447Z,13.50
2018-05-21T07:52:12.013Z,12.70
2018-05-21T07:54:39.777Z,9.93
2018-05-21T07:57:07.399Z,8.43
2018-05-21T07:59:34.927Z,8.53
2018-05-21T08:02:02.968Z,8.33
2018-05-21T08:04:31.405Z,7.70
2018-05-21T08:06:58.927Z,10.53
2018-05-21T08:09:26.513Z,9.47
2018-05-21T08:11:54.107Z,8.33
2018-05-21T08:14:21.732Z,7.03
2018-05-21T08:16:49.337Z,6.70
2018-05-21T08:19:16.905Z,6.57
2018-05-21T08:21:45.233Z,6.07
2018-05-21T08:24:12.857Z,5.77
2018-05-21T08:26:40.559Z,11.20
2018-05-21T08:29:08.094Z,7.50
2018-05-21T08:31:35.701Z,7.40
2018-05-21T08:34:03.217Z,7.03
2018-05-21T08:36:30.856Z,5.87
2018-05-21T08:38:59.352Z,6.33
2018-05-21T08:41:26.936Z,9.67
2018-05-21T08:43:54.591Z,6.10
2018-05-21T08:46:22.220Z,6.13
2018-05-21T08:48:50.656Z,7.67
2018-05-21T08:51:18.216Z,7.43
2018-05-21T08:53:46.623Z,6.70
2018-05-21T08:56:14.176Z,7.43
2018-05-21T08:58:41.760Z,6.90
2018-05-21T09:01:09.705Z,7.60
2018-05-21T09:03:37.391Z,7.37
2018-05-21T09:06:05.884Z,9.57
2018-05-21T09:08:33.439Z,7.93
2018-05-21T09:11:01.403Z,9.23
2018-05-21T09:13:29.747Z,7.17
2018-05-21T09:15:57.294Z,6.93
2018-05-21T09:18:24.919Z,6.77
2018-05-21T09:20:52.515Z,8.00
2018-05-21T09:23:20.130Z,7.07
2018-05-21T09:25:48.456Z,7.83
2018-05-21T09:28:16.001Z,7.80
2018-05-21T09:30:43.683Z,10.33
2018-05-21T09:33:11.244Z,5.80
2018-05-21T09:35:38.864Z,5.47
2018-05-21T09:38:06.418Z,5.23
2018-05-21T09:40:34.735Z,5.50
2018-05-21T09:43:02.348Z,6.13
2018-05-21T09:45:29.924Z,5.87
2018-05-21T09:47:57.464Z,6.80
2018-05-21T09:50:25.772Z,6.20
2018-05-21T09:52:53.376Z,6.40
2018-05-21T09:55:21.019Z,4.97
2018-05-21T09:57:49.188Z,8.27
2018-05-21T10:00:16.830Z,5.43
2018-05-21T10:02:44.385Z,5.73
2018-05-21T10:05:12.016Z,5.13
2018-05-21T10:07:39.604Z,4.80
2018-05-21T10:10:07.251Z,5.70
2018-05-21T10:12:35.574Z,5.50
2018-05-21T10:15:04.390Z,5.90
2018-05-21T10:17:31.968Z,7.37
2018-05-21T10:20:00.360Z,5.43
2018-05-21T10:22:27.987Z,6.80
2018-05-21T10:24:55.625Z,5.80
2018-05-21T10:27:23.201Z,5.63
2018-05-21T10:29:50.784Z,4.93
2018-05-21T10:32:18.564Z,8.40
2018-05-21T10:34:46.877Z,5.33
2018-05-21T10:37:14.483Z,5.20
2018-05-21T10:39:42.044Z,4.67
2018-05-21T10:42:09.619Z,5.63
2018-05-21T10:44:37.203Z,6.37
2018-05-21T10:47:05.114Z,5.33
2018-05-21T10:49:32.799Z,5.10
2018-05-21T10:52:00.567Z,6.30
2018-05-21T10:54:28.083Z,94.07
2018-05-21T10:56:55.662Z,74.57
2018-05-21T10:59:23.432Z,81.33
2018-05-21T11:01:50.995Z,78.83
2018-05-21T11:04:18.650Z,65.70
2018-05-21T11:06:46.223Z,59.73
2018-05-21T11:09:14.841Z,42.37
2018-05-21T11:11:43.222Z,34.77
2018-05-21T11:14:10.935Z,120.20
2018-05-21T11:16:39.372Z,191.23
2018-05-21T11:19:06.992Z,163.43
2018-05-21T11:21:35.528Z,90.80
2018-05-21T11:24:04.555Z,115.47
2018-05-21T11:26:33.224Z,87.27
2018-05-21T11:29:03.257Z,49.53
2018-05-21T11:31:30.777Z,71.17
2018-05-21T11:33:59.111Z,91.97
2018-05-21T11:36:26.643Z,83.07
2018-05-21T11:38:54.960Z,73.07
2018-05-21T11:41:22.527Z,79.83
2018-05-21T11:43:50.113Z,75.97
2018-05-21T11:46:18.465Z,75.60
2018-05-21T11:48:46.819Z,75.00
2018-05-21T11:51:14.484Z,67.53
2018-05-21T11:53:43.273Z,65.97
2018-05-21T11:56:11.041Z,85.23
2018-05-21T11:58:38.876Z,63.60
2018-05-21T12:01:08.840Z,65.60
2018-05-21T12:03:38.082Z,58.00
2018-05-21T12:06:07.767Z,54.40
2018-05-21T12:08:37.132Z,53.93
2018-05-21T12:11:05.214Z,51.87
2018-05-21T12:13:32.821Z,53.43
2018-05-21T12:16:00.326Z,51.23
2018-05-21T12:18:28.023Z,42.63
2018-05-21T12:20:56.378Z,46.53
2018-05-21T12:23:23.960Z,43.00
2018-05-21T12:25:51.884Z,41.87
2018-05-21T12:28:19.484Z,42.63
2018-05-21T12:30:47.107Z,49.50
2018-05-21T12:33:14.688Z,44.93
2018-05-21T12:35:42.577Z,41.77
2018-05-21T12:38:10.958Z,41.80
2018-05-21T12:40:39.318Z,40.10
2018-05-21T12:43:06.914Z,38.20
2018-05-21T12:45:34.605Z,42.77
2018-05-21T12:48:02.305Z,40.47
2018-05-21T12:50:29.860Z,38.47
2018-05-21T12:52:57.387Z,38.77
2018-05-21T12:55:24.958Z,37.53
2018-05-21T12:57:52.631Z,38.03
2018-05-21T13:00:20.404Z,37.87
2018-05-21T13:02:47.927Z,36.33
2018-05-21T13:05:15.711Z,35.40
2018-05-21T13:07:43.251Z,36.50
2018-05-21T13:10:10.989Z,37.97
2018-05-21T13:12:38.516Z,36.80
2018-05-21T13:15:06.131Z,39.23
2018-05-21T13:17:33.697Z,35.00
2018-05-21T13:20:01.369Z,33.47
2018-05-21T13:22:28.905Z,33.83
2018-05-21T13:24:56.478Z,36.10
2018-05-21T13:27:24.109Z,32.43
2018-05-21T13:29:51.727Z,34.90
2018-05-21T13:32:19.279Z,34.43
2018-05-21T13:34:47.204Z,34.00
2018-05-21T13:37:15.502Z,32.17
2018-05-21T13:39:43.983Z,32.50
2018-05-21T13:42:11.644Z,32.50
2018-05-21T13:44:39.166Z,31.33
2018-05-21T13:47:06.802Z,24.93
2018-05-21T13:49:34.335Z,21.40
2018-05-21T13:52:01.963Z,20.50
2018-05-21T13:54:30.331Z,18.97
2018-05-21T13:56:57.902Z,22.83
2018-05-21T13:59:26.212Z,18.83
2018-05-21T14:01:53.771Z,17.33
2018-05-21T14:04:21.381Z,18.93
2018-05-21T14:06:48.963Z,9.57
2018-05-21T14:09:17.379Z,12.35
2018-05-21T14:11:44.958Z,9.30
2018-05-21T14:14:12.580Z,7.33
2018-05-21T14:16:40.299Z,7.97
2018-05-21T14:19:07.914Z,7.20
2018-05-21T14:21:36.397Z,6.40
2018-05-21T14:24:04.853Z,9.40
2018-05-21T14:26:32.507Z,7.43
2018-05-21T14:29:00.093Z,9.93
2018-05-21T14:31:28.113Z,6.90
2018-05-21T14:33:56.707Z,7.10
2018-05-21T14:36:24.254Z,8.10
2018-05-21T14:38:51.924Z,6.07
2018-05-21T14:41:22.294Z,7.57
2018-05-21T14:43:51.636Z,9.10
2018-05-21T14:46:19.232Z,6.23
2018-05-21T14:48:46.834Z,6.30
2018-05-21T14:51:14.464Z,5.53
2018-05-21T14:53:42.241Z,6.50
2018-05-21T14:56:09.782Z,7.17
2018-05-21T14:58:38.349Z,9.00
2018-05-21T15:01:05.993Z,6.13
2018-05-21T15:03:33.570Z,6.90
2018-05-21T15:06:01.184Z,6.77
2018-05-21T15:08:28.751Z,6.53
2018-05-21T15:10:56.949Z,7.30
2018-05-21T15:13:24.609Z,8.43
2018-05-21T15:15:52.280Z,6.37
2018-05-21T15:18:19.860Z,10.23
2018-05-21T15:20:47.511Z,10.33
2018-05-21T15:23:15.081Z,8.70
2018-05-21T15:25:43.659Z,10.77
2018-05-21T15:28:11.276Z,4.80
2018-05-21T15:30:40.026Z,4.60
2018-05-21T15:33:07.615Z,4.37
2018-05-21T15:35:35.197Z,2.90
2018-05-21T15:38:07.900Z,3.57
2018-05-21T15:40:37.700Z,4.13
2018-05-21T15:43:05.384Z,6.83
2018-05-21T15:45:32.909Z,5.80
2018-05-21T15:48:00.497Z,3.93
2018-05-21T15:50:28.061Z,4.67
2018-05-21T15:52:55.664Z,8.50
2018-05-21T15:55:24.022Z,5.90
2018-05-21T15:57:51.723Z,6.30
2018-05-21T16:00:19.296Z,5.87
2018-05-21T16:02:46.957Z,10.23
2018-05-21T16:05:14.644Z,6.23
2018-05-21T16:07:42.251Z,5.90
2018-05-21T16:10:10.700Z,4.87
2018-05-21T16:12:38.249Z,6.97
2018-05-21T16:15:05.883Z,4.67
2018-05-21T16:17:33.547Z,4.70
2018-05-21T16:20:01.198Z,6.73
2018-05-21T16:22:29.565Z,5.27
2018-05-21T16:24:57.886Z,3.50
2018-05-21T16:27:25.506Z,4.67
2018-05-21T16:29:54.032Z,6.00
2018-05-21T16:32:22.568Z,7.40
2018-05-21T16:34:50.913Z,10.70
2018-05-21T16:37:18.780Z,4.40
2018-05-21T16:39:46.334Z,4.43
2018-05-21T16:42:13.902Z,4.90
2018-05-21T16:44:41.552Z,3.13
2018-05-21T16:47:09.208Z,5.33
2018-05-21T16:49:37.543Z,3.40
2018-05-21T16:52:07.143Z,5.67
2018-05-21T16:54:35.477Z,7.70
2018-05-21T16:57:03.068Z,4.83
2018-05-21T16:59:30.700Z,6.93
2018-05-21T17:01:58.461Z,4.53
2018-05-21T17:04:26.036Z,6.00
2018-05-21T17:06:53.757Z,4.17
2018-05-21T17:09:21.288Z,4.23
2018-05-21T17:11:49.704Z,4.40
2018-05-21T17:14:17.294Z,2.93
2018-05-21T17:16:44.833Z,4.20
2018-05-21T17:19:12.520Z,3.00
2018-05-21T17:21:40.084Z,4.67
2018-05-21T17:24:07.620Z,2.90
2018-05-21T17:26:35.255Z,6.17
2018-05-21T17:29:03.915Z,3.57
2018-05-21T17:31:31.556Z,4.20
2018-05-21T17:33:59.141Z,4.60
2018-05-21T17:36:26.789Z,3.73
2018-05-21T17:38:54.319Z,4.43
2018-05-21T17:41:21.887Z,4.97
2018-05-21T17:43:49.471Z,4.90
2018-05-21T17:46:17.321Z,8.00
2018-05-21T17:48:44.867Z,5.53
2018-05-21T17:51:12.530Z,9.40
2018-05-21T17:53:40.454Z,5.10
2018-05-21T17:56:08.065Z,4.60
2018-05-21T17:58:35.700Z,5.73
2018-05-21T18:01:04.305Z,5.27
2018-05-21T18:03:31.967Z,5.00
2018-05-21T18:05:59.610Z,5.50
2018-05-21T18:08:27.180Z,6.17
2018-05-21T18:10:55.867Z,5.73
2018-05-21T18:13:23.476Z,5.20
2018-05-21T18:15:51.824Z,4.30
2018-05-21T18:18:19.659Z,4.40
2018-05-21T18:20:47.441Z,4.60
2018-05-21T18:23:15.039Z,4.77
2018-05-21T18:25:43.680Z,3.30
2018-05-21T18:28:11.441Z,4.63
2018-05-21T18:30:39.192Z,5.37
2018-05-21T18:33:06.795Z,5.50
2018-05-21T18:35:34.520Z,7.87
2018-05-21T18:38:02.097Z,5.90
2018-05-21T18:40:29.675Z,3.93
2018-05-21T18:42:57.240Z,5.93
2018-05-21T18:45:24.864Z,5.73
2018-05-21T18:47:52.399Z,3.90
2018-05-21T18:50:20.002Z,6.13
2018-05-21T18:52:47.627Z,6.20
2018-05-21T18:55:16.371Z,5.70
2018-05-21T18:57:43.918Z,7.60
2018-05-21T19:00:11.519Z,4.43
2018-05-21T19:02:40.024Z,5.57
2018-05-21T19:05:07.621Z,6.43
2018-05-21T19:07:35.144Z,6.63
2018-05-21T19:10:03.916Z,5.90
2018-05-21T19:12:31.505Z,6.00
2018-05-21T19:15:00.110Z,7.43
2018-05-21T19:17:27.712Z,5.43
2018-05-21T19:19:56.244Z,6.23
2018-05-21T19:22:23.820Z,5.37
2018-05-21T19:24:52.369Z,7.53
2018-05-21T19:27:20.168Z,7.03
2018-05-21T19:29:47.695Z,5.33
2018-05-21T19:32:15.296Z,5.47
2018-05-21T19:34:42.874Z,5.83
2018-05-21T19:37:10.443Z,5.70
2018-05-21T19:39:38.981Z,7.57
2018-05-21T19:42:06.565Z,9.07
2018-05-21T19:44:34.157Z,10.90
2018-05-21T19:47:02.417Z,8.87
2018-05-21T19:49:30.037Z,8.03
2018-05-21T19:51:57.699Z,6.13
2018-05-21T19:54:25.262Z,6.77
2018-05-21T19:56:54.022Z,6.83
2018-05-21T19:59:22.521Z,8.27
2018-05-21T20:01:50.901Z,9.53
2018-05-21T20:04:18.903Z,10.10
2018-05-21T20:06:46.452Z,9.43
2018-05-21T20:09:14.130Z,7.80
2018-05-21T20:11:41.705Z,10.97
2018-05-21T20:14:10.218Z,9.17
2018-05-21T20:16:38.775Z,12.03
2018-05-21T20:19:06.378Z,11.60
2018-05-21T20:21:33.929Z,12.93
2018-05-21T20:24:01.965Z,15.07
2018-05-21T20:26:29.629Z,11.77
2018-05-21T20:28:57.244Z,14.87
2018-05-21T20:31:24.843Z,11.70
2018-05-21T20:33:52.741Z,12.67
2018-05-21T20:36:21.160Z,12.27
2018-05-21T20:38:49.538Z,12.90
2018-05-21T20:41:17.127Z,12.67
2018-05-21T20:43:44.730Z,10.83
2018-05-21T20:46:13.076Z,17.80
2018-05-21T20:48:40.637Z,16.50
2018-05-21T20:51:08.197Z,13.50
2018-05-21T20:53:36.782Z,13.93
2018-05-21T20:56:05.485Z,13.23
2018-05-21T20:58:33.127Z,15.27
2018-05-21T21:01:00.696Z,13.97
2018-05-21T21:03:29.190Z,11.70
2018-05-21T21:05:56.763Z,20.13
2018-05-21T21:08:25.091Z,13.00
2018-05-21T21:10:52.687Z,11.83
2018-05-21T21:13:20.276Z,14.13
2018-05-21T21:15:47.839Z,14.27
2018-05-21T21:18:15.531Z,15.00
2018-05-21T21:20:43.101Z,13.37
2018-05-21T21:23:10.674Z,14.73
2018-05-21T21:25:38.237Z,11.73
2018-05-21T21:28:05.972Z,13.60
2018-05-21T21:30:33.637Z,12.13
2018-05-21T21:33:03.073Z,12.20
2018-05-21T21:35:30.644Z,13.40
2018-05-21T21:37:59.132Z,12.20
2018-05-21T21:40:27.516Z,13.97
2018-05-21T21:42:55.829Z,16.80
2018-05-21T21:45:23.385Z,14.33
2018-05-21T21:47:50.960Z,15.23
2018-05-21T21:50:18.492Z,12.50
2018-05-21T21:52:46.051Z,13.20
2018-05-21T21:55:14.374Z,13.93
2018-05-21T21:57:42.040Z,11.77
2018-05-21T22:00:09.631Z,11.60
2018-05-21T22:02:38.256Z,12.97
2018-05-21T22:05:10.143Z,12.43
2018-05-21T22:07:37.757Z,12.60
2018-05-21T22:10:07.143Z,16.73
2018-05-21T22:12:35.616Z,11.10
2018-05-21T22:15:04.211Z,14.67
2018-05-21T22:17:31.790Z,16.13
2018-05-21T22:19:59.393Z,13.17
2018-05-21T22:22:26.945Z,11.53
2018-05-21T22:24:54.505Z,14.50
2018-05-21T22:27:22.097Z,11.13
2018-05-21T22:29:50.677Z,10.80
2018-05-21T22:32:19.143Z,12.17
2018-05-21T22:34:46.732Z,13.20
2018-05-21T22:37:14.315Z,11.10
2018-05-21T22:39:42.616Z,13.93
2018-05-21T22:42:10.175Z,12.57
2018-05-21T22:44:41.740Z,14.10
2018-05-21T22:47:09.370Z,12.60
2018-05-21T22:49:37.707Z,11.83
2018-05-21T22:52:07.761Z,15.30
2018-05-21T22:54:36.108Z,12.93
2018-05-21T22:57:03.748Z,12.33
2018-05-21T22:59:31.319Z,13.23
2018-05-21T23:01:59.033Z,12.10
2018-05-21T23:04:27.397Z,14.47
2018-05-21T23:06:55.018Z,13.63
2018-05-21T23:09:22.565Z,16.70
2018-05-21T23:11:50.221Z,13.40
2018-05-21T23:17:12.312Z,12.73
2018-05-21T23:19:39.955Z,15.47
2018-05-21T23:22:07.527Z,16.67
2018-05-21T23:24:36.124Z,11.27
2018-05-21T23:27:05.253Z,13.90
2018-05-21T23:29:32.972Z,11.67
2018-05-21T23:32:03.858Z,12.83
2018-05-21T23:34:32.169Z,16.40
2018-05-21T23:37:04.817Z,14.63
2018-05-21T23:39:33.386Z,11.87
2018-05-21T23:42:09.354Z,14.13
2018-05-21T23:44:38.626Z,15.93
2018-05-21T23:47:06.218Z,12.00
2018-05-21T23:49:34.630Z,14.77
2018-05-21T23:52:02.271Z,11.27
2018-05-21T23:54:30.178Z,12.27
2018-05-21T23:56:57.720Z,12.30
2018-05-21T23:59:26.165Z,11.27
